createdAt,value
2018-11-13T00:01:08.040Z,101422.44
2018-11-13T00:03:38.633Z,101428.52
2018-11-13T00:06:06.232Z,101440.13
2018-11-13T00:08:33.690Z,101436.83
2018-11-13T00:11:01.211Z,101440.18
2018-11-13T00:13:28.730Z,101448.52
2018-11-13T00:15:57.482Z,101447.34
2018-11-13T00:18:25.170Z,101447.70
2018-11-13T00:20:52.790Z,101437.77
2018-11-13T00:23:20.284Z,101426.66
2018-11-13T00:25:47.844Z,101425.23
2018-11-13T00:28:17.480Z,101419.81
2018-11-13T00:30:44.973Z,101421.30
2018-11-13T00:33:12.525Z,101426.25
2018-11-13T00:35:40.230Z,101442.86
2018-11-13T00:38:07.810Z,101440.53
2018-11-13T00:40:36.385Z,101439.19
2018-11-13T00:43:03.897Z,101420.95
2018-11-13T00:45:31.547Z,101420.75
2018-11-13T00:47:59.021Z,101397.50
2018-11-13T00:50:27.119Z,101386.17
2018-11-13T00:52:56.545Z,101378.98
2018-11-13T00:55:24.211Z,101383.92
2018-11-13T00:57:51.865Z,101402.37
2018-11-13T01:00:20.482Z,101404.33
2018-11-13T01:02:47.927Z,101403.34
2018-11-13T01:05:18.061Z,101396.77
2018-11-13T01:07:46.621Z,101400.45
2018-11-13T01:10:15.200Z,101396.97
2018-11-13T01:12:45.229Z,101398.73
2018-11-13T01:15:13.760Z,101408.48
2018-11-13T01:17:44.029Z,101405.22
2018-11-13T01:20:11.752Z,101401.77
2018-11-13T01:22:39.330Z,101409.61
2018-11-13T01:25:07.999Z,101428.36
2018-11-13T01:27:35.781Z,101429.91
2018-11-13T01:30:05.726Z,101428.67
2018-11-13T01:32:33.240Z,101435.44
2018-11-13T01:35:00.846Z,101438.80
2018-11-13T01:37:28.400Z,101440.94
2018-11-13T01:39:55.894Z,101455.38
2018-11-13T01:42:25.674Z,101470.20
2018-11-13T01:44:53.290Z,101463.83
2018-11-13T01:47:20.858Z,101465.71
2018-11-13T01:49:49.381Z,101475.30
2018-11-13T01:52:16.874Z,101483.29
2018-11-13T01:54:45.423Z,101476.23
2018-11-13T01:57:13.437Z,101458.53
2018-11-13T01:59:40.582Z,101456.41
2018-11-13T02:02:08.102Z,101460.78
2018-11-13T02:04:35.665Z,101458.89
2018-11-13T02:07:05.580Z,101458.96
2018-11-13T02:09:33.066Z,101461.65
2018-11-13T02:12:01.898Z,101467.98
2018-11-13T02:14:29.390Z,101472.62
2018-11-13T02:16:56.891Z,101479.39
2018-11-13T02:19:25.313Z,101480.03
2018-11-13T02:21:52.860Z,101480.00
2018-11-13T02:24:20.355Z,101477.88
2018-11-13T02:26:47.874Z,101481.05
2018-11-13T02:29:15.433Z,101473.90
2018-11-13T02:31:45.188Z,101474.04
2018-11-13T02:34:14.043Z,101466.87
2018-11-13T02:36:41.557Z,101455.94
2018-11-13T02:39:09.882Z,101445.33
2018-11-13T02:41:37.465Z,101434.41
2018-11-13T02:44:05.974Z,101415.05
2018-11-13T02:46:33.627Z,101411.02
2018-11-13T02:49:01.189Z,101431.27
2018-11-13T02:51:28.851Z,101449.21
2018-11-13T02:53:56.312Z,101457.16
2018-11-13T02:56:25.361Z,101459.80
2018-11-13T02:58:52.839Z,101453.59
2018-11-13T03:01:20.258Z,101449.32
2018-11-13T03:03:47.733Z,101459.97
2018-11-13T03:06:15.194Z,101470.39
2018-11-13T03:08:43.974Z,101485.14
2018-11-13T03:11:12.515Z,101480.20
2018-11-13T03:13:40.187Z,101477.44
2018-11-13T03:16:07.748Z,101494.56
2018-11-13T03:18:35.303Z,101491.37
2018-11-13T03:21:04.301Z,101498.59
2018-11-13T03:23:31.840Z,101498.03
2018-11-13T03:25:59.297Z,101511.03
2018-11-13T03:28:26.811Z,101530.48
2018-11-13T03:30:54.370Z,101541.59
2018-11-13T03:33:23.804Z,101529.33
2018-11-13T03:35:51.261Z,101515.34
2018-11-13T03:38:18.720Z,101505.46
2018-11-13T03:40:46.281Z,101507.86
2018-11-13T03:43:13.741Z,101509.62
2018-11-13T03:45:42.635Z,101500.99
2018-11-13T03:48:10.164Z,101497.34
2018-11-13T03:50:37.650Z,101497.16
2018-11-13T03:53:05.108Z,101496.98
2018-11-13T03:55:32.621Z,101495.27
2018-11-13T03:58:01.065Z,101499.09
2018-11-13T04:00:28.646Z,101513.50
2018-11-13T04:02:56.129Z,101516.98
2018-11-13T04:05:23.599Z,101518.20
2018-11-13T04:07:53.035Z,101524.94
2018-11-13T04:10:24.750Z,101529.98
2018-11-13T04:12:52.325Z,101528.99
2018-11-13T04:15:23.700Z,101523.13
2018-11-13T04:17:51.343Z,101504.64
2018-11-13T04:21:54.051Z,101493.38
2018-11-13T04:24:21.612Z,101496.62
2018-11-13T04:26:49.073Z,101493.42
2018-11-13T04:29:16.527Z,101497.54
2018-11-13T04:31:44.613Z,101493.69
2018-11-13T04:34:13.941Z,101495.41
2018-11-13T04:36:41.470Z,101501.00
2018-11-13T04:39:09.145Z,101511.24
2018-11-13T04:41:36.664Z,101528.53
2018-11-13T04:44:04.289Z,101544.36
2018-11-13T04:46:32.974Z,101549.25
2018-11-13T04:49:00.493Z,101557.45
2018-11-13T04:51:27.979Z,101561.84
2018-11-13T04:53:55.577Z,101553.98
2018-11-13T04:56:23.046Z,101552.68
2018-11-13T04:58:52.696Z,101543.97
2018-11-13T05:01:20.267Z,101531.04
2018-11-13T05:03:47.734Z,101529.41
2018-11-13T05:06:15.176Z,101528.40
2018-11-13T05:08:42.937Z,101534.50
2018-11-13T05:11:11.734Z,101553.14
2018-11-13T05:13:39.358Z,101560.89
2018-11-13T05:16:06.937Z,101563.83
2018-11-13T05:18:34.569Z,101565.17
2018-11-13T05:21:02.021Z,101570.02
2018-11-13T05:23:32.318Z,101572.91
2018-11-13T05:26:00.016Z,101581.02
2018-11-13T05:28:27.525Z,101565.38
2018-11-13T05:30:55.098Z,101569.82
2018-11-13T05:33:22.766Z,101578.39
2018-11-13T05:35:51.498Z,101564.51
2018-11-13T05:38:19.002Z,101564.34
2018-11-13T05:40:46.464Z,101582.84
2018-11-13T05:43:14.065Z,101591.91
2018-11-13T05:45:42.149Z,101597.18
2018-11-13T05:48:10.966Z,101612.14
2018-11-13T05:50:38.512Z,101604.66
2018-11-13T05:53:06.293Z,101604.33
2018-11-13T05:55:33.837Z,101601.94
2018-11-13T05:58:01.305Z,101599.45
2018-11-13T06:00:30.640Z,101603.79
2018-11-13T06:02:58.444Z,101604.29
2018-11-13T06:05:25.931Z,101614.05
2018-11-13T06:07:53.420Z,101613.06
2018-11-13T06:10:21.001Z,101614.02
2018-11-13T06:12:50.743Z,101614.44
2018-11-13T06:15:18.337Z,101619.00
2018-11-13T06:17:45.893Z,101616.42
2018-11-13T06:20:14.564Z,101613.42
2018-11-13T06:25:36.232Z,101621.75
2018-11-13T06:28:03.750Z,101616.40
2018-11-13T06:30:31.430Z,101627.02
2018-11-13T06:32:59.196Z,101631.83
2018-11-13T06:35:27.136Z,101634.81
2018-11-13T06:37:55.502Z,101643.44
2018-11-13T06:40:24.193Z,101642.66
2018-11-13T06:42:51.655Z,101647.67
2018-11-13T06:45:20.682Z,101639.12
2018-11-13T06:47:48.823Z,101651.96
2018-11-13T06:50:17.813Z,101655.56
2018-11-13T06:52:46.272Z,101658.66
2018-11-13T06:55:35.064Z,101671.61
2018-11-13T06:58:03.165Z,101676.91
2018-11-13T07:00:31.721Z,101682.06
2018-11-13T07:02:59.426Z,101690.34
2018-11-13T07:05:26.987Z,101688.63
2018-11-13T07:07:54.540Z,101694.78
2018-11-13T07:10:24.354Z,101697.91
2018-11-13T07:12:55.396Z,101711.95
2018-11-13T07:15:24.079Z,101713.27
2018-11-13T07:17:53.028Z,101716.05
2018-11-13T07:20:21.761Z,101714.07
2018-11-13T07:22:49.323Z,101727.25
2018-11-13T07:25:17.980Z,101735.73
2018-11-13T07:27:45.750Z,101741.33
2018-11-13T07:30:14.566Z,101741.84
2018-11-13T07:32:42.541Z,101747.44
2018-11-13T07:35:11.738Z,101748.47
2018-11-13T07:37:43.321Z,101762.56
2018-11-13T07:40:10.967Z,101767.00
2018-11-13T07:42:38.446Z,101769.80
2018-11-13T07:45:08.257Z,101766.09
2018-11-13T07:47:36.053Z,101766.67
2018-11-13T07:50:05.290Z,101773.85
2018-11-13T07:52:32.953Z,101765.58
2018-11-13T07:55:00.546Z,101760.02
2018-11-13T07:57:28.108Z,101769.14
2018-11-13T07:59:55.634Z,101772.49
2018-11-13T08:02:24.558Z,101772.47
2018-11-13T08:04:52.094Z,101784.73
2018-11-13T08:07:19.658Z,101774.12
2018-11-13T08:09:48.441Z,101788.17
2018-11-13T08:12:16.713Z,101788.30
2018-11-13T08:14:45.430Z,101799.53
2018-11-13T08:17:13.017Z,101801.95
2018-11-13T08:19:40.544Z,101799.52
2018-11-13T08:22:08.159Z,101807.61
2018-11-13T08:24:35.763Z,101808.43
2018-11-13T08:27:04.335Z,101809.39
2018-11-13T08:29:31.931Z,101807.01
2018-11-13T08:31:59.589Z,101809.34
2018-11-13T08:34:27.149Z,101804.03
2018-11-13T08:36:54.847Z,101805.77
2018-11-13T08:39:23.278Z,101807.16
2018-11-13T08:41:50.771Z,101812.37
2018-11-13T08:44:18.784Z,101814.50
2018-11-13T08:46:47.976Z,101818.14
2018-11-13T08:49:15.519Z,101822.14
2018-11-13T08:51:44.557Z,101820.05
2018-11-13T08:54:12.178Z,101822.38
2018-11-13T08:56:39.678Z,101835.05
2018-11-13T08:59:07.215Z,101829.86
2018-11-13T09:01:34.630Z,101830.84
2018-11-13T09:04:03.173Z,101832.81
2018-11-13T09:06:31.020Z,101839.12
2018-11-13T09:08:58.742Z,101833.35
2018-11-13T09:11:26.435Z,101834.81
2018-11-13T09:13:54.051Z,101831.20
2018-11-13T09:16:23.209Z,101841.66
2018-11-13T09:18:50.812Z,101844.96
2018-11-13T09:21:18.738Z,101837.70
2018-11-13T09:23:47.335Z,101845.17
2018-11-13T09:26:14.900Z,101836.14
2018-11-13T09:28:43.599Z,101847.23
2018-11-13T09:31:11.233Z,101836.45
2018-11-13T09:33:39.242Z,101846.87
2018-11-13T09:36:06.697Z,101853.59
2018-11-13T09:38:34.206Z,101860.23
2018-11-13T09:41:03.285Z,101863.66
2018-11-13T09:43:30.813Z,101860.68
2018-11-13T09:45:59.678Z,101857.23
2018-11-13T09:48:28.253Z,101848.25
2018-11-13T09:50:55.813Z,101857.09
2018-11-13T09:53:25.093Z,101866.11
2018-11-13T09:55:54.209Z,101869.34
2018-11-13T09:58:21.829Z,101869.81
2018-11-13T10:00:49.484Z,101867.80
2018-11-13T10:03:17.289Z,101866.41
2018-11-13T10:05:46.195Z,101863.10
2018-11-13T10:08:14.468Z,101868.63
2018-11-13T10:10:43.427Z,101873.87
2018-11-13T10:13:10.923Z,101871.69
2018-11-13T10:15:38.461Z,101871.59
2018-11-13T10:18:06.653Z,101880.80
2018-11-13T10:20:34.480Z,101883.48
2018-11-13T10:23:03.254Z,101887.18
2018-11-13T10:25:30.703Z,101884.43
2018-11-13T10:27:58.176Z,101885.25
2018-11-13T10:30:27.526Z,101884.25
2018-11-13T10:32:55.799Z,101888.44
2018-11-13T10:35:25.242Z,101884.00
2018-11-13T10:37:53.083Z,101884.47
2018-11-13T10:40:21.414Z,101892.68
2018-11-13T10:42:49.818Z,101893.81
2018-11-13T10:45:20.429Z,101894.10
2018-11-13T10:47:47.941Z,101895.00
2018-11-13T10:50:18.151Z,101888.40
2018-11-13T10:52:45.670Z,101877.48
2018-11-13T10:55:14.354Z,101899.24
2018-11-13T10:57:42.700Z,101898.16
2018-11-13T11:00:17.489Z,101896.42
2018-11-13T11:02:50.562Z,101899.50
2018-11-13T11:05:18.529Z,101903.95
2018-11-13T11:07:46.598Z,101903.48
2018-11-13T11:10:14.058Z,101899.03
2018-11-13T11:12:42.038Z,101903.12
2018-11-13T11:15:09.628Z,101898.72
2018-11-13T11:17:38.028Z,101897.23
2018-11-13T11:20:08.134Z,101898.22
2018-11-13T11:22:35.716Z,101893.63
2018-11-13T11:25:03.381Z,101899.88
2018-11-13T11:27:30.880Z,101897.97
2018-11-13T11:29:58.906Z,101904.29
2018-11-13T11:32:26.957Z,101905.63
2018-11-13T11:34:55.769Z,101899.72
2018-11-13T11:37:23.232Z,101882.22
2018-11-13T11:39:50.767Z,101889.49
2018-11-13T11:42:19.149Z,101895.37
2018-11-13T11:44:47.010Z,101896.72
2018-11-13T11:47:14.640Z,101890.83
2018-11-13T11:49:42.195Z,101884.27
2018-11-13T11:52:09.690Z,101895.20
2018-11-13T11:54:37.733Z,101899.25
2018-11-13T11:57:06.809Z,101896.41
2018-11-13T11:59:34.274Z,101911.52
2018-11-13T12:02:01.850Z,101907.53
2018-11-13T12:04:29.437Z,101899.79
2018-11-13T12:06:58.123Z,101908.22
2018-11-13T12:09:26.124Z,101916.48
2018-11-13T12:11:53.590Z,101911.55
2018-11-13T12:14:21.085Z,101912.74
2018-11-13T12:16:48.609Z,101927.30
2018-11-13T12:19:17.353Z,101909.44
2018-11-13T12:21:45.413Z,101920.94
2018-11-13T12:24:12.926Z,101928.87
2018-11-13T12:26:42.031Z,101929.06
2018-11-13T12:29:07.976Z,101932.41
2018-11-13T12:31:36.759Z,101933.47
2018-11-13T12:34:04.874Z,101934.80
2018-11-13T12:36:32.563Z,101932.21
2018-11-13T12:39:00.062Z,101927.50
2018-11-13T12:41:27.615Z,101945.84
2018-11-13T12:43:55.640Z,101943.06
2018-11-13T12:46:23.639Z,101944.45
2018-11-13T12:48:51.167Z,101952.55
2018-11-13T12:51:24.259Z,101949.56
2018-11-13T12:53:52.758Z,101964.72
2018-11-13T12:56:21.614Z,101957.12
2018-11-13T12:58:49.661Z,101951.14
2018-11-13T13:01:17.170Z,101956.59
2018-11-13T13:03:44.872Z,101958.93
2018-11-13T13:06:12.590Z,101956.46
2018-11-13T13:08:40.935Z,101964.97
2018-11-13T13:11:08.942Z,101962.27
2018-11-13T13:13:36.658Z,101970.97
2018-11-13T13:16:05.882Z,101970.45
2018-11-13T13:18:33.456Z,101980.38
2018-11-13T13:21:02.409Z,101972.66
2018-11-13T13:23:30.629Z,101974.81
2018-11-13T13:25:58.255Z,101975.98
2018-11-13T13:28:25.777Z,101988.94
2018-11-13T13:30:53.482Z,101988.99
2018-11-13T13:33:21.594Z,101994.75
2018-11-13T13:35:59.920Z,101989.63
2018-11-13T13:38:27.699Z,101990.88
2018-11-13T13:40:56.583Z,101993.28
2018-11-13T13:43:26.375Z,102001.67
2018-11-13T13:45:54.353Z,102005.48
2018-11-13T13:48:22.335Z,102008.59
2018-11-13T13:50:51.203Z,102015.91
2018-11-13T13:53:19.582Z,102023.53
2018-11-13T13:55:48.270Z,102024.16
2018-11-13T13:58:16.823Z,102022.57
2018-11-13T14:00:44.940Z,102021.09
2018-11-13T14:03:12.974Z,102025.92
2018-11-13T14:05:42.757Z,102020.36
2018-11-13T14:08:13.615Z,102018.09
2018-11-13T14:11:05.599Z,102022.27
2018-11-13T14:13:33.514Z,102024.75
2018-11-13T14:16:00.944Z,102033.14
2018-11-13T14:18:29.007Z,102029.31
2018-11-13T14:20:56.489Z,102032.45
2018-11-13T14:23:24.006Z,102044.16
2018-11-13T14:25:52.627Z,102053.81
2018-11-13T14:28:20.124Z,102051.94
2018-11-13T14:30:48.046Z,102062.09
2018-11-13T14:33:16.152Z,102062.55
2018-11-13T14:35:43.636Z,102065.41
2018-11-13T14:38:11.998Z,102068.69
2018-11-13T14:40:43.709Z,102076.73
2018-11-13T14:43:12.580Z,102083.05
2018-11-13T14:45:40.261Z,102079.61
2018-11-13T14:48:08.390Z,102081.52
2018-11-13T14:50:36.921Z,102087.50
2018-11-13T14:53:04.900Z,102103.20
2018-11-13T14:55:34.457Z,102108.84
2018-11-13T14:58:02.621Z,102106.77
2018-11-13T15:00:32.586Z,102113.39
2018-11-13T15:03:02.149Z,102117.09
2018-11-13T15:05:30.109Z,102121.58
2018-11-13T15:08:01.041Z,102119.73
2018-11-13T15:10:35.800Z,102133.72
2018-11-13T15:13:03.918Z,102139.20
2018-11-13T15:15:31.357Z,102144.05
2018-11-13T15:17:59.450Z,102149.48
2018-11-13T15:20:26.903Z,102152.02
2018-11-13T15:22:54.386Z,102158.43
2018-11-13T15:25:22.371Z,102155.37
2018-11-13T15:27:50.364Z,102162.77
2018-11-13T15:30:25.445Z,102171.30
2018-11-13T15:32:55.284Z,102177.70
2018-11-13T15:35:22.917Z,102182.03
2018-11-13T15:37:50.895Z,102188.66
2018-11-13T15:40:20.529Z,102178.42
2018-11-13T15:42:48.105Z,102186.51
2018-11-13T15:45:16.425Z,102181.53
2018-11-13T15:47:44.844Z,102184.79
2018-11-13T15:50:16.375Z,102177.25
2018-11-13T15:52:45.246Z,102178.16
2018-11-13T15:55:13.437Z,102171.11
2018-11-13T15:57:41.748Z,102190.34
2018-11-13T16:00:21.275Z,102191.64
2018-11-13T16:02:49.427Z,102195.66
2018-11-13T16:05:43.070Z,102208.93
2018-11-13T16:08:11.247Z,102205.64
2018-11-13T16:10:39.270Z,102213.73
2018-11-13T16:13:08.852Z,102219.28
2018-11-13T16:15:36.408Z,102226.27
2018-11-13T16:18:05.280Z,102226.78
2018-11-13T16:20:32.850Z,102224.36
2018-11-13T16:23:00.818Z,102227.36
2018-11-13T16:25:28.941Z,102235.38
2018-11-13T16:27:57.601Z,102234.80
2018-11-13T16:30:26.466Z,102244.49
2018-11-13T16:32:54.029Z,102239.42
2018-11-13T16:35:23.156Z,102246.83
2018-11-13T16:37:52.187Z,102251.54
2018-11-13T16:40:21.853Z,102250.56
2018-11-13T16:42:49.566Z,102256.00
2018-11-13T16:45:18.194Z,102263.78
2018-11-13T16:47:46.548Z,102265.63
2018-11-13T16:50:19.683Z,102266.62
2018-11-13T16:52:47.338Z,102262.00
2018-11-13T16:55:20.289Z,102267.97
2018-11-13T16:57:49.244Z,102268.83
2018-11-13T17:00:18.946Z,102268.64
2018-11-13T17:02:46.500Z,102272.55
2018-11-13T17:05:16.477Z,102274.63
2018-11-13T17:07:44.112Z,102274.70
2018-11-13T17:10:16.022Z,102267.54
2018-11-13T17:12:44.221Z,102270.20
2018-11-13T17:15:15.303Z,102283.95
2018-11-13T17:17:43.489Z,102280.05
2018-11-13T17:20:11.852Z,102286.09
2018-11-13T17:22:40.625Z,102285.91
2018-11-13T17:25:10.169Z,102285.05
2018-11-13T17:27:40.235Z,102294.82
2018-11-13T17:30:16.536Z,102290.05
2018-11-13T17:32:45.021Z,102293.77
2018-11-13T17:35:14.150Z,102295.27
2018-11-13T17:37:42.007Z,102296.73
2018-11-13T17:40:13.534Z,102298.49
2018-11-13T17:42:41.505Z,102292.53
2018-11-13T17:45:21.051Z,102288.59
2018-11-13T17:47:49.613Z,102297.04
2018-11-13T17:50:21.843Z,102299.53
2018-11-13T17:52:49.746Z,102307.94
2018-11-13T17:55:18.669Z,102305.20
2018-11-13T17:57:47.314Z,102310.02
2018-11-13T18:00:19.623Z,102314.98
2018-11-13T18:02:47.758Z,102305.88
2018-11-13T18:05:15.706Z,102309.98
2018-11-13T18:07:45.604Z,102315.59
2018-11-13T18:10:13.170Z,102315.19
2018-11-13T18:12:40.711Z,102312.77
2018-11-13T18:15:10.466Z,102316.92
2018-11-13T18:17:39.269Z,102317.98
2018-11-13T18:20:10.070Z,102322.86
2018-11-13T18:22:37.977Z,102324.16
2018-11-13T18:25:06.560Z,102325.80
2018-11-13T18:27:34.517Z,102329.19
2018-11-13T18:30:02.026Z,102328.50
2018-11-13T18:32:31.974Z,102330.23
2018-11-13T18:34:59.787Z,102331.20
2018-11-13T18:37:27.627Z,102331.14
2018-11-13T18:39:55.882Z,102332.02
2018-11-13T18:42:23.522Z,102328.25
2018-11-13T18:44:52.351Z,102340.17
2018-11-13T18:47:20.157Z,102344.55
2018-11-13T18:49:47.969Z,102350.95
2018-11-13T18:52:15.833Z,102341.13
2018-11-13T18:54:44.140Z,102350.12
2018-11-13T18:57:14.203Z,102345.70
2018-11-13T18:59:41.921Z,102354.59
2018-11-13T19:02:09.558Z,102351.52
2018-11-13T19:04:37.271Z,102361.63
2018-11-13T19:07:05.563Z,102362.75
2018-11-13T19:09:34.188Z,102365.28
2018-11-13T19:12:01.975Z,102366.88
2018-11-13T19:14:29.682Z,102368.65
2018-11-13T19:16:57.718Z,102368.98
2018-11-13T19:19:25.500Z,102370.20
2018-11-13T19:21:55.259Z,102374.00
2018-11-13T19:24:22.857Z,102368.23
2018-11-13T19:26:50.410Z,102370.16
2018-11-13T19:29:18.009Z,102366.70
2018-11-13T19:31:45.765Z,102375.84
2018-11-13T19:34:14.270Z,102376.56
2018-11-13T19:36:41.838Z,102376.41
2018-11-13T19:39:10.670Z,102378.95
2018-11-13T19:41:38.162Z,102380.21
2018-11-13T19:44:05.615Z,102375.61
2018-11-13T19:46:35.359Z,102376.42
2018-11-13T19:49:03.130Z,102386.00
2018-11-13T19:51:30.711Z,102380.95
2018-11-13T19:53:58.295Z,102389.58
2018-11-13T19:56:25.905Z,102393.03
2018-11-13T19:58:54.382Z,102389.69
2018-11-13T20:01:22.080Z,102395.83
2018-11-13T20:03:49.601Z,102392.37
2018-11-13T20:06:17.114Z,102397.88
2018-11-13T20:08:46.637Z,102405.59
2018-11-13T20:11:15.536Z,102406.58
2018-11-13T20:13:43.123Z,102402.60
2018-11-13T20:16:10.725Z,102404.77
2018-11-13T20:18:38.146Z,102399.84
2018-11-13T20:21:06.167Z,102407.63
2018-11-13T20:23:34.637Z,102408.59
2018-11-13T20:26:02.146Z,102413.77
2018-11-13T20:28:29.760Z,102409.24
2018-11-13T20:30:58.731Z,102415.48
2018-11-13T20:33:26.442Z,102420.16
2018-11-13T20:35:55.482Z,102419.81
2018-11-13T20:38:22.997Z,102429.96
2018-11-13T20:40:50.483Z,102414.63
2018-11-13T20:43:18.128Z,102417.58
2018-11-13T20:45:45.708Z,102425.42
2018-11-13T20:48:14.103Z,102425.85
2018-11-13T20:50:42.088Z,102429.44
2018-11-13T20:53:09.710Z,102430.53
2018-11-13T20:55:37.218Z,102426.86
2018-11-13T20:58:05.557Z,102433.09
2018-11-13T21:00:35.796Z,102424.59
2018-11-13T21:03:03.961Z,102430.75
2018-11-13T21:05:31.438Z,102431.18
2018-11-13T21:07:59.009Z,102424.59
2018-11-13T21:10:32.611Z,102428.50
2018-11-13T21:13:01.305Z,102431.32
2018-11-13T21:15:29.316Z,102433.26
2018-11-13T21:17:56.836Z,102428.36
2018-11-13T21:20:25.403Z,102430.80
2018-11-13T21:22:52.487Z,102430.81
2018-11-13T21:25:23.029Z,102433.22
2018-11-13T21:27:54.090Z,102436.31
2018-11-13T21:30:22.081Z,102438.11
2018-11-13T21:32:50.338Z,102434.63
2018-11-13T21:35:18.037Z,102443.06
2018-11-13T21:37:47.624Z,102445.22
2018-11-13T21:40:16.930Z,102435.95
2018-11-13T21:42:45.940Z,102441.23
2018-11-13T21:45:14.183Z,102438.58
2018-11-13T21:47:41.930Z,102443.37
2018-11-13T21:50:12.222Z,102447.78
2018-11-13T21:52:40.105Z,102441.05
2018-11-13T21:55:10.422Z,102446.47
2018-11-13T21:57:37.976Z,102450.56
2018-11-13T22:00:11.938Z,102443.98
2018-11-13T22:02:40.918Z,102451.98
2018-11-13T22:05:08.866Z,102449.34
2018-11-13T22:07:36.765Z,102452.95
2018-11-13T22:10:05.240Z,102453.24
2018-11-13T22:12:34.240Z,102450.63
2018-11-13T22:15:01.802Z,102449.61
2018-11-13T22:17:29.472Z,102452.34
2018-11-13T22:19:57.437Z,102446.94
2018-11-13T22:22:24.642Z,102454.40
2018-11-13T22:24:53.063Z,102452.14
2018-11-13T22:27:20.538Z,102456.55
2018-11-13T22:29:47.922Z,102460.36
2018-11-13T22:32:15.489Z,102459.00
2018-11-13T22:34:42.941Z,102466.03
2018-11-13T22:37:12.241Z,102463.03
2018-11-13T22:39:40.007Z,102467.46
2018-11-13T22:42:07.461Z,102466.64
2018-11-13T22:44:34.909Z,102465.78
2018-11-13T22:47:02.461Z,102469.76
2018-11-13T22:49:30.831Z,102468.52
2018-11-13T22:51:58.382Z,102477.66
2018-11-13T22:54:26.505Z,102467.72
2018-11-13T22:56:54.021Z,102469.92
2018-11-13T22:59:21.484Z,102468.59
2018-11-13T23:01:50.369Z,102466.84
2018-11-13T23:04:17.807Z,102474.09
2018-11-13T23:06:45.256Z,102473.13
2018-11-13T23:09:13.409Z,102466.44
2018-11-13T23:11:41.101Z,102466.12
2018-11-13T23:14:09.406Z,102466.50
2018-11-13T23:16:38.168Z,102460.08
2018-11-13T23:19:05.690Z,102460.20
2018-11-13T23:21:33.157Z,102472.95
2018-11-13T23:24:00.777Z,102461.46
2018-11-13T23:26:30.251Z,102470.28
2018-11-13T23:28:57.779Z,102471.63
2018-11-13T23:31:25.288Z,102476.66
2018-11-13T23:33:53.171Z,102480.43
2018-11-13T23:37:54.018Z,102481.13
2018-11-13T23:40:22.920Z,102483.69
2018-11-13T23:42:50.967Z,102495.11
2018-11-13T23:45:19.493Z,102494.29
2018-11-13T23:47:47.349Z,102498.29
2018-11-13T23:50:16.777Z,102492.50
2018-11-13T23:52:45.505Z,102488.37
2018-11-13T23:55:13.791Z,102493.27
2018-11-13T23:57:41.895Z,102485.67
